Terminal Aerodrome Forecast
Issued by NWS

Home | Current Version | Previous Version | Text Only | Print | Product List | Glossary On
Versions: 1 2 3 4 5 6 7 8 9 10 11 12 13 14 15
000
FTUS46 KMTR 081739
TAFOAK
TAF
KOAK 081739Z 0818/0924 VRB04KT 6SM -SHRA BR SCT005 BKN015 OVC025
      TEMPO 0818/0820 2SM SHRA BKN005 OVC015
     FM082100 18008KT 6SM BR VCSH BKN018 OVC025
     FM090500 18006KT 5SM BR VCSH SCT008 BKN010 OVC015
     FM091500 15008KT 4SM -SHRA BR BKN007 OVC012
     FM092100 21008KT 6SM BR VCSH SCT012 OVC025=

USA.gov is the U.S. government's official web portal to all federal, state and local government web resources and services.